Time;durP1;ratioP1;P1;durP2;ratioP2;P2;SDS_P1;SDS_P2;PMS_P1;PMS_P2;Temp;Humidity;BMP_temperature;BMP_pressure;BME280_temperature;BME280_humidity;BME280_pressure;Samples;Min_cycle;Max_cycle;Signal;HPM_P1;HPM_P2
2022/09/23 00:00:03;;;;;;;2.93;2.63;;;;;;;;;;5049269;28;20271;-47
2022/09/23 00:02:29;;;;;;;3.63;3.30;;;;;;;;;;5051653;28;20266;-47
2022/09/23 00:04:55;;;;;;;3.40;3.10;;;;;;;;;;5052917;28;20208;-47
2022/09/23 00:07:21;;;;;;;3.17;2.67;;;;;;;;;;5053112;28;20295;-47
2022/09/23 00:09:47;;;;;;;3.73;2.47;;;;;;;;;;5052922;28;20666;-46
2022/09/23 00:12:13;;;;;;;2.80;2.53;;;;;;;;;;5053158;28;20215;-46
2022/09/23 00:14:39;;;;;;;3.20;2.90;;;;;;;;;;5053324;28;20196;-47
2022/09/23 00:17:06;;;;;;;9.17;8.27;;;;;;;;;;5052346;28;20234;-47
2022/09/23 00:19:32;;;;;;;7.00;5.10;;;;;;;;;;5052575;28;20200;-47
2022/09/23 00:21:58;;;;;;;3.50;3.10;;;;;;;;;;5051951;28;20203;-47
2022/09/23 00:24:24;;;;;;;3.43;2.87;;;;;;;;;;5052762;28;20619;-47
2022/09/23 00:26:50;;;;;;;4.53;2.67;;;;;;;;;;5052606;28;20188;-46
2022/09/23 00:29:16;;;;;;;3.90;3.00;;;;;;;;;;5052134;28;20554;-46
2022/09/23 00:31:42;;;;;;;3.10;2.80;;;;;;;;;;5052727;28;20286;-46
2022/09/23 00:34:10;;;;;;;3.87;3.00;;;;;;;;;;5051448;28;20204;-47
2022/09/23 00:36:37;;;;;;;3.93;2.83;;;;;;;;;;5052119;28;20259;-46
2022/09/23 00:39:03;;;;;;;2.70;2.50;;;;;;;;;;5052260;28;20219;-46
2022/09/23 00:41:29;;;;;;;3.23;2.87;;;;;;;;;;5052548;28;20224;-47
2022/09/23 00:43:56;;;;;;;3.47;2.80;;;;;;;;;;5052272;28;20192;-47
2022/09/23 00:46:25;;;;;;;2.90;2.70;;;;;;;;;;5052502;28;20648;-47
2022/09/23 00:48:54;;;;;;;3.33;2.37;;;;;;;;;;5052175;28;20207;-47
2022/09/23 00:51:23;;;;;;;4.03;2.67;;;;;;;;;;5052145;28;20216;-47
2022/09/23 00:53:50;;;;;;;3.77;3.40;;;;;;;;;;5051543;28;20300;-47
2022/09/23 00:56:17;;;;;;;4.00;3.07;;;;;;;;;;5051458;28;20226;-47
2022/09/23 00:58:46;;;;;;;3.37;2.60;;;;;;;;;;5051614;28;20761;-47
2022/09/23 01:01:13;;;;;;;4.90;3.07;;;;;;;;;;5052034;28;20532;-47
2022/09/23 01:03:40;;;;;;;4.60;2.97;;;;;;;;;;5051750;28;20228;-47
2022/09/23 01:06:06;;;;;;;2.70;2.50;;;;;;;;;;5051774;28;20200;-47
2022/09/23 01:08:33;;;;;;;5.93;5.33;;;;;;;;;;5051547;28;20429;-47
2022/09/23 01:11:05;;;;;;;5.37;4.87;;;;;;;;;;5051644;28;20204;-47
2022/09/23 01:13:34;;;;;;;3.60;3.17;;;;;;;;;;5051912;28;20587;-47
2022/09/23 01:16:05;;;;;;;3.20;2.90;;;;;;;;;;5051588;28;20206;-47
2022/09/23 01:18:33;;;;;;;2.80;2.50;;;;;;;;;;5051963;28;20224;-46
2022/09/23 01:21:11;;;;;;;3.47;3.00;;;;;;;;;;5051626;28;20282;-46
2022/09/23 01:23:49;;;;;;;3.43;2.77;;;;;;;;;;5052037;28;20188;-47
2022/09/23 01:26:26;;;;;;;2.83;2.53;;;;;;;;;;5051598;28;20258;-46
2022/09/23 01:29:01;;;;;;;3.10;2.70;;;;;;;;;;5051677;28;20243;-45
2022/09/23 01:31:32;;;;;;;2.53;2.33;;;;;;;;;;5051434;28;20725;-45
2022/09/23 01:34:02;;;;;;;2.47;2.27;;;;;;;;;;5051499;28;20285;-45
2022/09/23 01:36:32;;;;;;;3.20;2.43;;;;;;;;;;5051647;28;20196;-44
2022/09/23 01:39:00;;;;;;;2.47;2.27;;;;;;;;;;5051388;28;20724;-45
2022/09/23 01:41:33;;;;;;;2.80;2.50;;;;;;;;;;5050825;28;20625;-46
2022/09/23 01:44:01;;;;;;;2.40;2.20;;;;;;;;;;5051816;28;20614;-44
2022/09/23 01:46:31;;;;;;;3.83;2.83;;;;;;;;;;5051374;28;20188;-44
2022/09/23 01:49:00;;;;;;;4.00;2.80;;;;;;;;;;5051692;28;20207;-44
2022/09/23 01:51:30;;;;;;;3.30;3.00;;;;;;;;;;5051534;28;20200;-46
2022/09/23 01:53:59;;;;;;;3.30;2.40;;;;;;;;;;5051388;28;20197;-44
2022/09/23 01:56:28;;;;;;;2.60;2.40;;;;;;;;;;5051366;28;20203;-46
2022/09/23 01:58:56;;;;;;;3.23;2.33;;;;;;;;;;5051378;28;20731;-46
2022/09/23 02:01:27;;;;;;;3.03;2.20;;;;;;;;;;5051450;28;20372;-46
2022/09/23 02:03:58;;;;;;;2.80;2.40;;;;;;;;;;5051615;28;20208;-46
2022/09/23 02:06:27;;;;;;;4.50;3.00;;;;;;;;;;5051472;28;20210;-46
2022/09/23 02:08:55;;;;;;;2.97;2.47;;;;;;;;;;5051496;28;20562;-46
2022/09/23 02:11:22;;;;;;;3.33;2.37;;;;;;;;;;5051561;28;20196;-47
2022/09/23 02:13:52;;;;;;;2.83;2.40;;;;;;;;;;5051267;28;20258;-44
2022/09/23 02:16:23;;;;;;;2.83;2.50;;;;;;;;;;5051602;28;20196;-46
2022/09/23 02:18:51;;;;;;;2.50;2.30;;;;;;;;;;5051260;28;20196;-46
2022/09/23 02:21:19;;;;;;;3.03;2.50;;;;;;;;;;5051402;28;20204;-46
2022/09/23 02:23:49;;;;;;;2.57;2.37;;;;;;;;;;5051381;28;20208;-46
2022/09/23 02:26:18;;;;;;;2.70;2.50;;;;;;;;;;5051211;28;20728;-47
2022/09/23 02:28:48;;;;;;;2.70;2.50;;;;;;;;;;5051395;28;20220;-46
2022/09/23 02:31:20;;;;;;;2.60;2.40;;;;;;;;;;5051153;28;20314;-46
2022/09/23 02:33:53;;;;;;;2.50;2.30;;;;;;;;;;5050696;28;20192;-46
2022/09/23 02:36:24;;;;;;;2.53;2.30;;;;;;;;;;5050425;28;20621;-47
2022/09/23 02:38:52;;;;;;;2.70;2.47;;;;;;;;;;5051137;28;20228;-46
2022/09/23 02:41:21;;;;;;;2.37;2.17;;;;;;;;;;5050910;28;20220;-46
2022/09/23 02:43:49;;;;;;;2.70;2.50;;;;;;;;;;5051030;28;20196;-47
2022/09/23 02:46:15;;;;;;;2.73;2.30;;;;;;;;;;5051310;28;20196;-46
2022/09/23 02:48:43;;;;;;;2.23;2.03;;;;;;;;;;5051246;28;20188;-46
2022/09/23 02:51:09;;;;;;;2.33;2.10;;;;;;;;;;5050965;28;20291;-46
2022/09/23 02:53:37;;;;;;;2.70;2.33;;;;;;;;;;5051196;28;20197;-44
2022/09/23 02:56:12;;;;;;;2.60;2.40;;;;;;;;;;5050481;28;20212;-44
2022/09/23 02:58:38;;;;;;;2.73;2.20;;;;;;;;;;5053861;28;20925;-45
2022/09/23 03:01:07;;;;;;;2.40;2.20;;;;;;;;;;5054547;28;20232;-44
2022/09/23 03:03:38;;;;;;;2.47;2.13;;;;;;;;;;5054870;28;20200;-45
2022/09/23 03:06:09;;;;;;;2.63;2.20;;;;;;;;;;5054765;28;20680;-46
2022/09/23 03:08:42;;;;;;;2.57;2.37;;;;;;;;;;5054856;28;20273;-47
2022/09/23 03:11:10;;;;;;;2.53;2.33;;;;;;;;;;5054573;28;20207;-46
2022/09/23 03:13:41;;;;;;;3.37;2.37;;;;;;;;;;5054537;28;20192;-46
2022/09/23 03:16:11;;;;;;;2.60;2.40;;;;;;;;;;5054180;28;20196;-46
2022/09/23 03:18:39;;;;;;;3.83;2.47;;;;;;;;;;5053869;28;20228;-45
2022/09/23 03:21:06;;;;;;;3.70;3.00;;;;;;;;;;5053970;28;20654;-46
2022/09/23 03:23:34;;;;;;;2.77;2.57;;;;;;;;;;5054342;28;20498;-45
2022/09/23 03:26:04;;;;;;;2.83;2.40;;;;;;;;;;5054191;28;20287;-45
2022/09/23 03:28:31;;;;;;;2.50;2.30;;;;;;;;;;5054316;28;20741;-45
2022/09/23 03:30:59;;;;;;;4.47;2.70;;;;;;;;;;5054000;28;20248;-45
2022/09/23 03:33:28;;;;;;;2.57;2.13;;;;;;;;;;5054318;28;20572;-45
2022/09/23 03:38:44;;;;;;;4.60;2.20;;;;;;;;;;5054166;28;20660;-45
2022/09/23 03:41:15;;;;;;;2.43;2.23;;;;;;;;;;5054003;28;20201;-46
2022/09/23 03:43:42;;;;;;;2.80;2.60;;;;;;;;;;5054220;28;20204;-45
2022/09/23 03:46:08;;;;;;;2.67;2.43;;;;;;;;;;5053635;28;20197;-45
2022/09/23 03:48:34;;;;;;;2.37;2.17;;;;;;;;;;5053198;28;20192;-45
2022/09/23 03:51:04;;;;;;;2.40;2.20;;;;;;;;;;5053061;28;20662;-45
2022/09/23 03:53:30;;;;;;;2.40;2.20;;;;;;;;;;5053414;28;20200;-45
2022/09/23 03:55:56;;;;;;;2.30;2.10;;;;;;;;;;5053640;28;20203;-45
2022/09/23 03:58:23;;;;;;;6.23;2.20;;;;;;;;;;5053774;28;20235;-45
2022/09/23 04:00:49;;;;;;;2.30;2.10;;;;;;;;;;5053740;28;20243;-46
2022/09/23 04:03:17;;;;;;;2.40;2.20;;;;;;;;;;5053758;28;20197;-46
2022/09/23 04:05:44;;;;;;;2.87;2.27;;;;;;;;;;5053769;28;20205;-47
2022/09/23 04:08:10;;;;;;;2.40;2.20;;;;;;;;;;5053130;28;20248;-46
2022/09/23 04:10:40;;;;;;;3.37;2.77;;;;;;;;;;5053547;28;20588;-46
2022/09/23 04:13:05;;;;;;;2.67;2.40;;;;;;;;;;5053380;28;20196;-46
2022/09/23 04:15:33;;;;;;;2.87;2.50;;;;;;;;;;5053272;28;20213;-46
2022/09/23 04:17:59;;;;;;;2.50;2.30;;;;;;;;;;5052799;28;20224;-46
2022/09/23 04:20:27;;;;;;;2.30;2.10;;;;;;;;;;5053307;28;20292;-46
2022/09/23 04:22:53;;;;;;;2.77;2.47;;;;;;;;;;5053121;28;20279;-46
2022/09/23 04:25:19;;;;;;;3.60;2.50;;;;;;;;;;5053134;28;20284;-46
2022/09/23 04:27:45;;;;;;;3.07;2.33;;;;;;;;;;5053021;28;20204;-46
2022/09/23 04:30:12;;;;;;;2.60;2.40;;;;;;;;;;5052872;28;20228;-46
2022/09/23 04:32:39;;;;;;;4.10;2.60;;;;;;;;;;5053143;28;20193;-46
2022/09/23 04:35:06;;;;;;;4.53;2.60;;;;;;;;;;5053026;28;20221;-46
2022/09/23 04:37:32;;;;;;;2.53;2.33;;;;;;;;;;5052773;28;20327;-46
2022/09/23 04:39:58;;;;;;;2.97;2.53;;;;;;;;;;5052543;28;20291;-46
2022/09/23 04:42:27;;;;;;;3.17;2.50;;;;;;;;;;5052980;28;20212;-46
2022/09/23 04:44:53;;;;;;;2.47;2.10;;;;;;;;;;5052848;28;20216;-46
2022/09/23 04:47:19;;;;;;;3.30;2.40;;;;;;;;;;5052928;28;20254;-46
2022/09/23 04:49:46;;;;;;;2.57;2.37;;;;;;;;;;5052717;28;20207;-46
2022/09/23 04:52:12;;;;;;;2.63;2.07;;;;;;;;;;5052574;28;20207;-46
2022/09/23 04:54:40;;;;;;;2.30;2.10;;;;;;;;;;5052731;28;20208;-46
2022/09/23 04:57:09;;;;;;;4.10;3.47;;;;;;;;;;5052488;28;20732;-46
2022/09/23 04:59:36;;;;;;;3.17;2.83;;;;;;;;;;5052719;28;20212;-46
2022/09/23 05:02:02;;;;;;;6.47;2.80;;;;;;;;;;5052190;28;20200;-46
2022/09/23 05:04:28;;;;;;;3.27;2.43;;;;;;;;;;5052439;28;20669;-46
2022/09/23 05:06:55;;;;;;;2.67;2.47;;;;;;;;;;5052048;28;20573;-46
2022/09/23 05:09:21;;;;;;;3.30;2.73;;;;;;;;;;5052224;28;20203;-46
2022/09/23 05:11:47;;;;;;;2.70;2.50;;;;;;;;;;5052173;28;20204;-46
2022/09/23 05:14:13;;;;;;;3.60;2.60;;;;;;;;;;5051557;28;20208;-45
2022/09/23 05:16:39;;;;;;;2.30;2.10;;;;;;;;;;5052134;28;20204;-45
2022/09/23 05:19:05;;;;;;;3.20;2.47;;;;;;;;;;5051727;28;20573;-45
2022/09/23 05:21:31;;;;;;;2.87;2.57;;;;;;;;;;5051547;28;20240;-45
2022/09/23 05:23:59;;;;;;;2.83;2.63;;;;;;;;;;5051665;28;20283;-45
2022/09/23 05:26:26;;;;;;;2.70;2.37;;;;;;;;;;5052034;28;20283;-45
2022/09/23 05:28:52;;;;;;;2.87;2.60;;;;;;;;;;5051360;28;20217;-45
2022/09/23 05:31:20;;;;;;;3.23;2.93;;;;;;;;;;5050917;28;20314;-45
2022/09/23 05:33:47;;;;;;;4.10;2.57;;;;;;;;;;5050244;28;20204;-45
2022/09/23 05:36:14;;;;;;;3.93;2.97;;;;;;;;;;5051351;28;20673;-45
2022/09/23 05:38:41;;;;;;;4.70;2.97;;;;;;;;;;5051431;28;20293;-45
2022/09/23 05:41:09;;;;;;;2.73;2.53;;;;;;;;;;5051651;28;20302;-45
2022/09/23 05:43:36;;;;;;;3.00;2.70;;;;;;;;;;5051708;28;20216;-45
2022/09/23 05:46:02;;;;;;;3.00;2.63;;;;;;;;;;5051357;28;20279;-45
2022/09/23 05:48:30;;;;;;;2.73;2.53;;;;;;;;;;5051584;28;20558;-44
2022/09/23 05:50:55;;;;;;;2.80;2.07;;;;;;;;;;5051507;28;20208;-45
2022/09/23 05:53:21;;;;;;;3.60;2.47;;;;;;;;;;5051561;28;20662;-45
2022/09/23 05:55:48;;;;;;;3.10;2.40;;;;;;;;;;5051426;28;20192;-45
2022/09/23 05:58:15;;;;;;;3.97;2.30;;;;;;;;;;5051391;28;20319;-45
2022/09/23 06:00:42;;;;;;;3.00;2.50;;;;;;;;;;5051219;28;20211;-45
2022/09/23 06:03:11;;;;;;;2.60;2.20;;;;;;;;;;5051172;28;20236;-45
2022/09/23 06:05:37;;;;;;;2.77;2.30;;;;;;;;;;5051321;28;20903;-45
2022/09/23 06:08:03;;;;;;;3.13;2.23;;;;;;;;;;5051353;28;20212;-45
2022/09/23 06:10:29;;;;;;;3.23;2.40;;;;;;;;;;5051142;28;20208;-45
2022/09/23 06:12:55;;;;;;;4.63;2.43;;;;;;;;;;5051173;28;20196;-45
2022/09/23 06:15:23;;;;;;;5.13;2.30;;;;;;;;;;5049920;28;20232;-45
2022/09/23 06:17:49;;;;;;;2.67;2.00;;;;;;;;;;5050679;28;20231;-46
2022/09/23 06:20:15;;;;;;;2.33;2.10;;;;;;;;;;5050787;28;20220;-45
2022/09/23 06:22:41;;;;;;;4.70;2.20;;;;;;;;;;5051225;28;20204;-45
2022/09/23 06:25:07;;;;;;;2.20;2.00;;;;;;;;;;5050780;28;20242;-46
2022/09/23 06:27:33;;;;;;;2.50;2.30;;;;;;;;;;5051014;28;20192;-45
2022/09/23 06:29:59;;;;;;;2.93;2.37;;;;;;;;;;5051072;28;20270;-46
2022/09/23 06:32:27;;;;;;;4.23;2.50;;;;;;;;;;5053665;28;20210;-47
2022/09/23 06:34:53;;;;;;;3.50;2.40;;;;;;;;;;5055098;28;20696;-46
2022/09/23 06:37:19;;;;;;;2.53;2.17;;;;;;;;;;5054839;28;20260;-46
2022/09/23 06:39:45;;;;;;;2.63;2.20;;;;;;;;;;5055013;28;20559;-46
2022/09/23 06:42:11;;;;;;;3.00;2.23;;;;;;;;;;5054924;28;20196;-46
2022/09/23 06:44:37;;;;;;;3.23;2.60;;;;;;;;;;5054821;28;20249;-46
2022/09/23 06:47:03;;;;;;;4.20;2.50;;;;;;;;;;5054840;28;20275;-46
2022/09/23 06:49:30;;;;;;;4.43;2.87;;;;;;;;;;5054731;28;20610;-47
2022/09/23 06:51:56;;;;;;;4.67;2.63;;;;;;;;;;5054659;28;20204;-46
2022/09/23 06:54:22;;;;;;;2.63;2.30;;;;;;;;;;5054303;28;20315;-53
2022/09/23 06:56:48;;;;;;;3.33;2.30;;;;;;;;;;5054494;28;20196;-44
2022/09/23 06:59:15;;;;;;;3.83;2.50;;;;;;;;;;5054411;28;20286;-47
2022/09/23 07:01:41;;;;;;;2.83;2.33;;;;;;;;;;5054590;28;20200;-46
2022/09/23 07:04:08;;;;;;;4.47;2.30;;;;;;;;;;5054505;28;20315;-45
2022/09/23 07:06:36;;;;;;;4.00;2.10;;;;;;;;;;5054568;28;20206;-46
2022/09/23 07:09:02;;;;;;;2.50;1.90;;;;;;;;;;5054139;28;20220;-45
2022/09/23 07:11:29;;;;;;;3.33;2.50;;;;;;;;;;5053582;28;20204;-44
2022/09/23 07:13:55;;;;;;;3.27;1.90;;;;;;;;;;5054216;28;20204;-47
2022/09/23 07:16:21;;;;;;;2.87;1.93;;;;;;;;;;5054602;28;20212;-46
2022/09/23 07:18:47;;;;;;;3.40;1.90;;;;;;;;;;5053812;28;20310;-46
2022/09/23 07:21:15;;;;;;;4.13;2.00;;;;;;;;;;5054235;28;20223;-47
2022/09/23 07:23:43;;;;;;;3.17;1.80;;;;;;;;;;5054190;28;20207;-45
2022/09/23 07:26:09;;;;;;;5.47;2.00;;;;;;;;;;5053837;28;20205;-47
2022/09/23 07:28:36;;;;;;;2.50;2.00;;;;;;;;;;5054129;28;20196;-46
2022/09/23 07:31:03;;;;;;;1.90;1.70;;;;;;;;;;5053689;28;20246;-47
2022/09/23 07:33:30;;;;;;;2.07;1.70;;;;;;;;;;5054339;28;20196;-48
2022/09/23 07:35:56;;;;;;;2.37;1.90;;;;;;;;;;5054188;28;20258;-46
2022/09/23 07:38:25;;;;;;;2.17;1.70;;;;;;;;;;5053803;28;20231;-46
2022/09/23 07:40:52;;;;;;;2.00;1.80;;;;;;;;;;5054010;28;20617;-46
2022/09/23 07:43:18;;;;;;;6.40;2.20;;;;;;;;;;5052837;28;20204;-46
2022/09/23 07:45:45;;;;;;;1.60;1.50;;;;;;;;;;5054073;28;20215;-46
2022/09/23 07:48:12;;;;;;;2.10;1.90;;;;;;;;;;5053716;28;20718;-46
2022/09/23 07:50:38;;;;;;;3.50;2.10;;;;;;;;;;5053710;28;20279;-46
2022/09/23 07:53:05;;;;;;;3.03;1.70;;;;;;;;;;5053720;28;20204;-46
2022/09/23 07:55:31;;;;;;;1.87;1.63;;;;;;;;;;5053938;28;20204;-46
2022/09/23 07:57:58;;;;;;;1.77;1.60;;;;;;;;;;5053615;28;20251;-46
2022/09/23 08:00:25;;;;;;;2.60;1.83;;;;;;;;;;5053532;28;20201;-46
2022/09/23 08:02:51;;;;;;;1.60;1.50;;;;;;;;;;5053705;28;20227;-46
2022/09/23 08:05:17;;;;;;;3.33;1.70;;;;;;;;;;5051476;28;20643;-46
2022/09/23 08:07:43;;;;;;;1.60;1.50;;;;;;;;;;5053336;28;20231;-46
2022/09/23 08:10:09;;;;;;;2.03;1.70;;;;;;;;;;5033984;28;20201;-46
2022/09/23 08:12:35;;;;;;;1.53;1.43;;;;;;;;;;5033431;28;20682;-46
2022/09/23 08:15:03;;;;;;;2.70;1.50;;;;;;;;;;5015564;28;20196;-46
2022/09/23 08:17:29;;;;;;;3.20;1.37;;;;;;;;;;5032788;28;20312;-46
2022/09/23 08:19:55;;;;;;;2.30;1.37;;;;;;;;;;5033007;28;20754;-46
2022/09/23 08:22:21;;;;;;;2.20;1.80;;;;;;;;;;5032752;28;20216;-46
2022/09/23 08:24:47;;;;;;;2.83;1.50;;;;;;;;;;5032948;28;20197;-46
2022/09/23 08:27:13;;;;;;;1.67;1.50;;;;;;;;;;5032888;28;20209;-46
2022/09/23 08:29:39;;;;;;;1.97;1.47;;;;;;;;;;5033399;28;20204;-47
2022/09/23 08:32:07;;;;;;;1.50;1.40;;;;;;;;;;5052384;28;20236;-47
2022/09/23 08:34:34;;;;;;;4.00;1.80;;;;;;;;;;5051693;28;20197;-46
2022/09/23 08:37:00;;;;;;;3.77;1.80;;;;;;;;;;5052706;28;20200;-47
2022/09/23 08:39:26;;;;;;;1.57;1.40;;;;;;;;;;5052858;28;20215;-47
2022/09/23 08:42:03;;;;;;;2.03;1.47;;;;;;;;;;5052331;28;20666;-47
2022/09/23 08:44:31;;;;;;;2.30;1.43;;;;;;;;;;5052609;28;20196;-44
2022/09/23 08:47:05;;;;;;;1.70;1.40;;;;;;;;;;5052322;28;20618;-45
2022/09/23 08:49:37;;;;;;;2.93;1.60;;;;;;;;;;5052135;28;20206;-45
2022/09/23 08:52:06;;;;;;;1.53;1.20;;;;;;;;;;5052477;28;20682;-45
2022/09/23 08:54:33;;;;;;;2.40;1.40;;;;;;;;;;5051790;28;20197;-46
2022/09/23 08:57:00;;;;;;;1.30;1.20;;;;;;;;;;5052116;28;20195;-45
2022/09/23 08:59:29;;;;;;;3.03;1.40;;;;;;;;;;5052584;28;20216;-46
2022/09/23 09:01:57;;;;;;;1.90;1.60;;;;;;;;;;5052397;28;20243;-46
2022/09/23 09:04:26;;;;;;;2.00;1.40;;;;;;;;;;5052430;28;20204;-45
2022/09/23 09:06:56;;;;;;;2.00;1.50;;;;;;;;;;5052288;28;20204;-45
2022/09/23 09:09:25;;;;;;;2.10;1.33;;;;;;;;;;5052392;28;20192;-45
2022/09/23 09:11:54;;;;;;;1.63;1.50;;;;;;;;;;5051536;28;20639;-45
2022/09/23 09:14:24;;;;;;;1.50;1.30;;;;;;;;;;5051991;28;20280;-45
2022/09/23 09:16:58;;;;;;;4.20;1.60;;;;;;;;;;5052188;28;20220;-45
2022/09/23 09:19:33;;;;;;;2.43;1.50;;;;;;;;;;5052122;28;20689;-45
2022/09/23 09:22:00;;;;;;;4.17;1.60;;;;;;;;;;5052127;28;20240;-46
2022/09/23 09:24:31;;;;;;;2.20;1.40;;;;;;;;;;5051911;28;20230;-45
2022/09/23 09:26:57;;;;;;;2.93;1.20;;;;;;;;;;5052035;28;20258;-45
2022/09/23 09:29:24;;;;;;;2.30;1.40;;;;;;;;;;5052128;28;20255;-45
2022/09/23 09:31:50;;;;;;;2.40;1.43;;;;;;;;;;5051558;28;20286;-45
2022/09/23 09:34:25;;;;;;;1.63;1.20;;;;;;;;;;5051561;28;20210;-45
2022/09/23 09:36:57;;;;;;;1.70;1.53;;;;;;;;;;5051957;28;20201;-46
2022/09/23 09:39:26;;;;;;;2.23;1.60;;;;;;;;;;5046919;28;20292;-46
2022/09/23 09:41:58;;;;;;;2.50;1.50;;;;;;;;;;5048681;28;20207;-45
2022/09/23 09:44:27;;;;;;;2.03;1.50;;;;;;;;;;5051197;28;20269;-45
2022/09/23 09:47:06;;;;;;;2.03;1.50;;;;;;;;;;5051738;28;20204;-46
2022/09/23 09:49:35;;;;;;;2.43;1.50;;;;;;;;;;5051687;28;20724;-46
2022/09/23 09:52:12;;;;;;;2.23;1.40;;;;;;;;;;5050503;28;20267;-46
2022/09/23 09:54:39;;;;;;;3.13;1.20;;;;;;;;;;5051380;28;20511;-46
2022/09/23 09:57:07;;;;;;;3.10;1.60;;;;;;;;;;5050996;28;20247;-46
2022/09/23 09:59:34;;;;;;;1.90;1.60;;;;;;;;;;5049523;28;20200;-46
2022/09/23 10:02:14;;;;;;;2.10;1.40;;;;;;;;;;5048496;28;20299;-46
2022/09/23 10:04:40;;;;;;;1.63;1.30;;;;;;;;;;5045268;28;20222;-46
2022/09/23 10:07:08;;;;;;;1.67;1.40;;;;;;;;;;5048277;28;20224;-46
2022/09/23 10:09:35;;;;;;;3.07;1.50;;;;;;;;;;5049088;28;20196;-46
2022/09/23 10:12:10;;;;;;;1.67;1.47;;;;;;;;;;5050653;28;20227;-46
2022/09/23 10:14:36;;;;;;;2.77;1.60;;;;;;;;;;5049066;28;20203;-46
2022/09/23 10:17:04;;;;;;;2.03;1.23;;;;;;;;;;5050697;28;20299;-46
2022/09/23 10:19:30;;;;;;;2.27;1.50;;;;;;;;;;5048537;28;20220;-46
2022/09/23 10:21:59;;;;;;;2.70;1.63;;;;;;;;;;5048665;28;20573;-46
2022/09/23 10:24:26;;;;;;;1.70;1.40;;;;;;;;;;5050250;28;20729;-46
2022/09/23 10:26:55;;;;;;;1.33;1.23;;;;;;;;;;5048303;28;20227;-46
2022/09/23 10:29:24;;;;;;;1.70;1.60;;;;;;;;;;5048186;28;20223;-47
2022/09/23 10:32:12;;;;;;;3.83;1.30;;;;;;;;;;5049750;28;20239;-47
2022/09/23 10:34:42;;;;;;;1.60;1.27;;;;;;;;;;5048977;28;20251;-47
2022/09/23 10:37:13;;;;;;;1.90;1.40;;;;;;;;;;5048240;28;20287;-47
2022/09/23 10:48:08;;;;;;;2.47;1.50;;;;;;;;;;5068490;28;20218;-48
2022/09/23 10:50:39;;;;;;;2.60;1.50;;;;;;;;;;5070742;28;20318;-48
2022/09/23 10:53:13;;;;;;;1.93;1.43;;;;;;;;;;5068958;28;20294;-47
2022/09/23 10:55:48;;;;;;;2.47;1.40;;;;;;;;;;5069184;28;20601;-48
2022/09/23 10:58:20;;;;;;;1.70;1.17;;;;;;;;;;5070666;28;20215;-48
2022/09/23 11:00:54;;;;;;;1.67;1.40;;;;;;;;;;5059384;28;20231;-48
2022/09/23 11:03:47;;;;;;;5.47;1.50;;;;;;;;;;5050278;28;20204;-47
2022/09/23 11:06:18;;;;;;;1.30;1.20;;;;;;;;;;5003450;28;20284;-47
2022/09/23 11:09:03;;;;;;;3.10;1.47;;;;;;;;;;5050529;28;20224;-47
2022/09/23 11:11:34;;;;;;;2.27;1.40;;;;;;;;;;5050265;28;20685;-47
2022/09/23 11:14:05;;;;;;;3.13;1.30;;;;;;;;;;5050019;28;20199;-47
2022/09/23 11:16:37;;;;;;;1.40;1.30;;;;;;;;;;5050600;28;20227;-47
2022/09/23 11:19:31;;;;;;;5.23;1.57;;;;;;;;;;5052189;28;20231;-47
2022/09/23 11:22:07;;;;;;;2.23;1.80;;;;;;;;;;5053862;28;20310;-47
2022/09/23 11:24:40;;;;;;;2.63;1.80;;;;;;;;;;5053792;28;20207;-47
2022/09/23 11:27:10;;;;;;;3.80;1.50;;;;;;;;;;5053263;28;20196;-47
2022/09/23 11:29:51;;;;;;;2.30;1.70;;;;;;;;;;5052762;28;20564;-48
2022/09/23 11:32:26;;;;;;;2.03;1.50;;;;;;;;;;5047511;28;20211;-48
2022/09/23 11:35:01;;;;;;;1.80;1.40;;;;;;;;;;5053057;28;20199;-47
2022/09/23 11:37:30;;;;;;;1.93;1.50;;;;;;;;;;5052331;28;20217;-47
2022/09/23 11:40:00;;;;;;;2.13;1.67;;;;;;;;;;5051801;28;20560;-47
2022/09/23 11:42:30;;;;;;;3.40;1.80;;;;;;;;;;5052272;28;20227;-47
2022/09/23 11:44:57;;;;;;;3.97;1.63;;;;;;;;;;5053299;28;20196;-49
2022/09/23 11:47:25;;;;;;;2.87;1.70;;;;;;;;;;5053112;28;20298;-47
2022/09/23 11:49:53;;;;;;;3.83;1.83;;;;;;;;;;5053172;28;20200;-48
2022/09/23 11:52:21;;;;;;;1.90;1.50;;;;;;;;;;5052825;28;20200;-49
2022/09/23 11:54:51;;;;;;;3.93;1.70;;;;;;;;;;5052625;28;20196;-48
2022/09/23 11:57:20;;;;;;;2.90;1.60;;;;;;;;;;5051459;28;20287;-48
2022/09/23 11:59:48;;;;;;;2.67;1.77;;;;;;;;;;5053175;28;20213;-49
2022/09/23 12:02:19;;;;;;;3.93;1.97;;;;;;;;;;5052895;28;20247;-49
2022/09/23 12:04:48;;;;;;;1.87;1.40;;;;;;;;;;5053126;28;20201;-48
2022/09/23 12:07:16;;;;;;;2.33;1.50;;;;;;;;;;5052359;28;20238;-48
2022/09/23 12:09:44;;;;;;;1.50;1.40;;;;;;;;;;5053274;28;20242;-48
2022/09/23 12:12:15;;;;;;;2.17;1.57;;;;;;;;;;5052748;28;20250;-48
2022/09/23 12:14:54;;;;;;;2.33;1.60;;;;;;;;;;5052860;28;20214;-48
2022/09/23 12:17:26;;;;;;;3.23;1.70;;;;;;;;;;5054991;28;20205;-48
2022/09/23 12:20:01;;;;;;;3.63;1.70;;;;;;;;;;5053276;28;20210;-48
2022/09/23 12:22:36;;;;;;;1.97;1.50;;;;;;;;;;5052824;28;20188;-48
2022/09/23 12:25:11;;;;;;;1.77;1.50;;;;;;;;;;5052730;28;20621;-48
2022/09/23 12:27:44;;;;;;;2.40;1.50;;;;;;;;;;5052001;28;20681;-48
2022/09/23 12:30:13;;;;;;;3.63;1.70;;;;;;;;;;5052146;28;20232;-48
2022/09/23 12:32:42;;;;;;;3.07;1.63;;;;;;;;;;5052967;28;20199;-48
2022/09/23 12:35:20;;;;;;;2.77;1.70;;;;;;;;;;5052414;28;20273;-48
2022/09/23 12:37:47;;;;;;;2.27;1.80;;;;;;;;;;5051877;28;20253;-48
2022/09/23 12:40:18;;;;;;;3.50;1.50;;;;;;;;;;5052006;28;20660;-48
2022/09/23 12:42:46;;;;;;;2.00;1.50;;;;;;;;;;5052124;28;20729;-49
2022/09/23 12:45:18;;;;;;;3.67;1.50;;;;;;;;;;5052388;28;20289;-47
2022/09/23 12:47:44;;;;;;;2.67;1.70;;;;;;;;;;5052792;28;20195;-47
2022/09/23 12:50:29;;;;;;;5.13;1.70;;;;;;;;;;5051780;28;20207;-49
2022/09/23 12:52:56;;;;;;;2.43;1.60;;;;;;;;;;5051785;28;20195;-47
2022/09/23 12:55:40;;;;;;;2.20;1.63;;;;;;;;;;5050587;28;20201;-48
2022/09/23 12:58:36;;;;;;;3.90;1.80;;;;;;;;;;5051147;28;20222;-49
2022/09/23 13:01:06;;;;;;;1.77;1.60;;;;;;;;;;5051904;28;20205;-47
2022/09/23 13:06:37;;;;;;;2.90;1.70;;;;;;;;;;5050467;28;20325;-48
2022/09/23 13:09:06;;;;;;;4.90;1.60;;;;;;;;;;5049387;28;20240;-47
2022/09/23 13:11:32;;;;;;;1.87;1.67;;;;;;;;;;5050045;28;20674;-48
2022/09/23 13:14:01;;;;;;;2.23;1.53;;;;;;;;;;5051435;28;20241;-48
2022/09/23 13:16:29;;;;;;;2.70;1.60;;;;;;;;;;5049583;28;20202;-46
2022/09/23 13:18:56;;;;;;;3.40;1.63;;;;;;;;;;5048224;28;20233;-49
2022/09/23 13:21:41;;;;;;;2.13;1.50;;;;;;;;;;5051313;28;20196;-46
2022/09/23 13:24:18;;;;;;;2.80;2.00;;;;;;;;;;5051110;28;20236;-47
2022/09/23 13:26:44;;;;;;;1.97;1.60;;;;;;;;;;5051256;28;20259;-45
2022/09/23 13:29:16;;;;;;;2.37;1.73;;;;;;;;;;5051303;28;20193;-46
2022/09/23 13:31:42;;;;;;;3.23;1.73;;;;;;;;;;5051907;28;20682;-49
2022/09/23 13:34:12;;;;;;;4.23;1.83;;;;;;;;;;5050229;28;20200;-47
2022/09/23 13:36:43;;;;;;;2.03;1.83;;;;;;;;;;5048335;28;20201;-47
2022/09/23 13:39:15;;;;;;;2.70;1.63;;;;;;;;;;5048919;28;20233;-48
2022/09/23 13:41:42;;;;;;;3.10;2.00;;;;;;;;;;5049911;28;20648;-48
2022/09/23 13:44:13;;;;;;;3.33;1.60;;;;;;;;;;5050779;28;20205;-47
2022/09/23 13:46:44;;;;;;;6.03;1.70;;;;;;;;;;5051517;28;20233;-47
2022/09/23 13:49:19;;;;;;;2.03;1.67;;;;;;;;;;5051486;28;20202;-47
2022/09/23 13:51:45;;;;;;;3.50;1.70;;;;;;;;;;5051708;28;20203;-47
2022/09/23 13:54:24;;;;;;;3.03;1.90;;;;;;;;;;5049905;28;20233;-47
2022/09/23 13:56:50;;;;;;;2.07;1.60;;;;;;;;;;5051837;28;20224;-48
2022/09/23 13:59:22;;;;;;;1.87;1.50;;;;;;;;;;5051590;28;20252;-47
2022/09/23 14:01:49;;;;;;;2.30;1.80;;;;;;;;;;5051838;28;20657;-47
2022/09/23 14:04:23;;;;;;;1.90;1.70;;;;;;;;;;5051640;28;20205;-48
2022/09/23 14:06:49;;;;;;;2.60;1.90;;;;;;;;;;5051063;28;20210;-48
2022/09/23 14:09:15;;;;;;;5.67;2.50;;;;;;;;;;5051672;28;20202;-48
2022/09/23 14:11:41;;;;;;;2.43;1.90;;;;;;;;;;5051849;28;20201;-48
2022/09/23 14:14:08;;;;;;;2.03;1.77;;;;;;;;;;5051751;28;20221;-48
2022/09/23 14:16:36;;;;;;;2.33;1.80;;;;;;;;;;5051954;28;20200;-48
2022/09/23 14:19:03;;;;;;;1.87;1.67;;;;;;;;;;5051693;28;20664;-48
2022/09/23 14:21:33;;;;;;;2.00;1.50;;;;;;;;;;5051161;28;20211;-46
2022/09/23 14:24:04;;;;;;;2.90;1.60;;;;;;;;;;5050444;28;20202;-46
2022/09/23 14:26:30;;;;;;;2.30;1.53;;;;;;;;;;5050540;28;20210;-47
2022/09/23 14:28:56;;;;;;;2.90;1.40;;;;;;;;;;5051133;28;20202;-48
2022/09/23 14:31:22;;;;;;;4.30;1.90;;;;;;;;;;5051046;28;20312;-48
2022/09/23 14:33:48;;;;;;;1.70;1.60;;;;;;;;;;5051523;28;20293;-48
2022/09/23 14:39:03;;;;;;;2.17;1.63;;;;;;;;;;5049859;28;20284;-48
2022/09/23 14:41:33;;;;;;;3.13;1.60;;;;;;;;;;5050636;28;20208;-48
2022/09/23 14:44:00;;;;;;;2.23;1.70;;;;;;;;;;5050301;28;20275;-48
2022/09/23 14:46:27;;;;;;;2.10;1.50;;;;;;;;;;5050440;28;20210;-48
2022/09/23 14:49:01;;;;;;;2.53;1.60;;;;;;;;;;5050437;28;20688;-48
2022/09/23 14:51:34;;;;;;;3.23;1.70;;;;;;;;;;5050280;28;20196;-48
2022/09/23 14:54:18;;;;;;;2.53;1.57;;;;;;;;;;5053557;28;20304;-48
2022/09/23 14:56:44;;;;;;;2.50;1.60;;;;;;;;;;5046730;28;20206;-48
2022/09/23 14:59:22;;;;;;;1.60;1.50;;;;;;;;;;5053557;28;20230;-48
2022/09/23 15:01:48;;;;;;;2.30;1.60;;;;;;;;;;5052405;28;20249;-48
2022/09/23 15:04:16;;;;;;;2.70;1.57;;;;;;;;;;5052271;28;20208;-48
2022/09/23 15:06:45;;;;;;;5.33;1.70;;;;;;;;;;5052060;28;20257;-48
2022/09/23 15:09:15;;;;;;;1.67;1.50;;;;;;;;;;5053634;28;20198;-48